Argyle, New York
Current Conditions -  °F | °C
As of 6:53 AM on Tuesday 27 Jan 2015 (Local Time) from KGFL Reporting Station
Overcast Overcast  
Wind Chill:   Ceiling: 8000
Heat Index: 13°   Visibility: 10mi
Dew Point:   Wind: 7mph
Humidity: 56%   Direction: 30°NNE
Pressure: 29.85"   Gusts: NA
Location:  43.24°N, 73.49°W
Report Text: KGFL 271153Z AUTO 03006KT 10SM OVC080 M11/M18 A2985 RMK AO2 SLP120 T11061178 11094 21111 56014
Loading
Personal Weather Stations






























Interactive Weather Map New forecast layout! Learn more

10-Day Weather Forecast

Advertisements
Track Severe Weather on mobile